GER7KE EDDF-EDDB
Flight info
| Callsign | GER7KE |
|---|---|
| Flight time | 0h 45m |
| Altitude | 31000 |
| Route | TOBAK2D/07C TOBAK N858 SWALM T201 TAMEB T278 KLF KLF1R |
| Aircraft | E190/M-SDE3GILORVW/S |
Departure
| Time | 2026-05-07 19:53 |
|---|---|
| Airport | Frankfurt Main Airport (EDDF) |
Arrival
| Time | 2026-05-07 20:38 |
|---|---|
| Airport | Berlin Brandenburg Airport (EDDB) |
| Time | Latitude | Longitude | Altitude | Speed | Heading |
|---|---|---|---|---|---|
| 2026-05-07 19:12 | 50.04894 | 8.56996 | 359 ft | 0 kts | 295° |
| 2026-05-07 19:42 | 50.04886 | 8.57026 | 363 ft | 4 kts | 293° |
| 2026-05-07 19:42 | 50.04877 | 8.57055 | 359 ft | 4 kts | 295° |
| 2026-05-07 19:42 | 50.04872 | 8.57090 | 363 ft | 3 kts | 249° |
| 2026-05-07 19:42 | 50.04865 | 8.57077 | 361 ft | 4 kts | 224° |
| 2026-05-07 19:43 | 50.04840 | 8.57061 | 361 ft | 4 kts | 198° |
| 2026-05-07 19:43 | 50.04815 | 8.57048 | 359 ft | 4 kts | 199° |
| 2026-05-07 19:43 | 50.04795 | 8.57035 | 355 ft | 0 kts | 205° |
| 2026-05-07 19:45 | 50.04783 | 8.57026 | 355 ft | 5 kts | 205° |
| 2026-05-07 19:46 | 50.04742 | 8.56997 | 357 ft | 8 kts | 205° |
| 2026-05-07 19:46 | 50.04689 | 8.56959 | 358 ft | 10 kts | 204° |
| 2026-05-07 19:46 | 50.04630 | 8.56921 | 358 ft | 8 kts | 198° |
| 2026-05-07 19:46 | 50.04573 | 8.56898 | 356 ft | 8 kts | 194° |
| 2026-05-07 19:47 | 50.04518 | 8.56878 | 358 ft | 10 kts | 192° |
| 2026-05-07 19:47 | 50.04451 | 8.56819 | 360 ft | 13 kts | 236° |
| 2026-05-07 19:47 | 50.04413 | 8.56666 | 356 ft | 17 kts | 250° |
| 2026-05-07 19:47 | 50.04345 | 8.56575 | 357 ft | 14 kts | 164° |
| 2026-05-07 19:48 | 50.04244 | 8.56631 | 359 ft | 14 kts | 171° |
| 2026-05-07 19:48 | 50.04184 | 8.56517 | 359 ft | 18 kts | 249° |
| 2026-05-07 19:48 | 50.04135 | 8.56308 | 353 ft | 22 kts | 250° |
| 2026-05-07 19:48 | 50.04079 | 8.56077 | 357 ft | 24 kts | 250° |
| 2026-05-07 19:49 | 50.04020 | 8.55828 | 354 ft | 24 kts | 249° |
| 2026-05-07 19:49 | 50.03968 | 8.55614 | 351 ft | 17 kts | 250° |
| 2026-05-07 19:49 | 50.03924 | 8.55428 | 349 ft | 20 kts | 249° |
| 2026-05-07 19:49 | 50.03871 | 8.55211 | 355 ft | 22 kts | 249° |
| 2026-05-07 19:50 | 50.03816 | 8.54979 | 349 ft | 22 kts | 249° |
| 2026-05-07 19:50 | 50.03768 | 8.54779 | 348 ft | 16 kts | 249° |
| 2026-05-07 19:50 | 50.03693 | 8.54711 | 344 ft | 8 kts | 170° |
| 2026-05-07 19:50 | 50.03665 | 8.54724 | 351 ft | 0 kts | 160° |
| 2026-05-07 19:51 | 50.03632 | 8.54742 | 347 ft | 9 kts | 160° |
| 2026-05-07 19:51 | 50.03583 | 8.54796 | 346 ft | 7 kts | 96° |
| 2026-05-07 19:51 | 50.03591 | 8.54834 | 342 ft | 0 kts | 67° |
| 2026-05-07 19:52 | 50.03616 | 8.54942 | 347 ft | 36 kts | 70° |
| 2026-05-07 19:52 | 50.03796 | 8.55694 | 355 ft | 108 kts | 69° |
| 2026-05-07 19:52 | 50.04129 | 8.57088 | 435 ft | 159 kts | 69° |
| 2026-05-07 19:53 | 50.04537 | 8.58773 | 1179 ft | 172 kts | 69° |
| 2026-05-07 19:53 | 50.04996 | 8.60538 | 1985 ft | 178 kts | 68° |
| 2026-05-07 19:53 | 50.05471 | 8.62430 | 2314 ft | 203 kts | 68° |
| 2026-05-07 19:53 | 50.05986 | 8.64470 | 3167 ft | 201 kts | 67° |
| 2026-05-07 19:54 | 50.06519 | 8.66506 | 3910 ft | 204 kts | 65° |
| 2026-05-07 19:54 | 50.07119 | 8.68590 | 4394 ft | 221 kts | 64° |
| 2026-05-07 19:54 | 50.07963 | 8.70612 | 4990 ft | 228 kts | 41° |
| 2026-05-07 19:54 | 50.09314 | 8.72015 | 5468 ft | 242 kts | 28° |
| 2026-05-07 19:55 | 50.10854 | 8.73323 | 5805 ft | 262 kts | 27° |
| 2026-05-07 19:55 | 50.12523 | 8.74592 | 6371 ft | 270 kts | 22° |
| 2026-05-07 19:55 | 50.14252 | 8.75780 | 7019 ft | 273 kts | 22° |
| 2026-05-07 19:55 | 50.16005 | 8.76969 | 7646 ft | 276 kts | 22° |
| 2026-05-07 19:56 | 50.17778 | 8.78172 | 8306 ft | 279 kts | 22° |
| 2026-05-07 19:56 | 50.19569 | 8.79387 | 8975 ft | 282 kts | 22° |
| 2026-05-07 19:56 | 50.21355 | 8.80706 | 9656 ft | 287 kts | 32° |
| 2026-05-07 19:56 | 50.22743 | 8.82969 | 10181 ft | 299 kts | 58° |
| 2026-05-07 19:57 | 50.23649 | 8.86017 | 10395 ft | 319 kts | 66° |
| 2026-05-07 19:57 | 50.24513 | 8.89310 | 10674 ft | 335 kts | 67° |
| 2026-05-07 19:57 | 50.25398 | 8.92740 | 11124 ft | 343 kts | 67° |
| 2026-05-07 19:57 | 50.26289 | 8.96214 | 11708 ft | 347 kts | 67° |
| 2026-05-07 19:58 | 50.27195 | 8.99749 | 12274 ft | 351 kts | 68° |
| 2026-05-07 19:58 | 50.28137 | 9.03290 | 12841 ft | 354 kts | 64° |
| 2026-05-07 19:58 | 50.29230 | 9.06764 | 13405 ft | 358 kts | 63° |
| 2026-05-07 19:58 | 50.30339 | 9.10272 | 13999 ft | 361 kts | 63° |
| 2026-05-07 19:59 | 50.31464 | 9.13793 | 14527 ft | 364 kts | 63° |
| 2026-05-07 19:59 | 50.32599 | 9.17339 | 15052 ft | 367 kts | 63° |
| 2026-05-07 19:59 | 50.33740 | 9.20915 | 15586 ft | 369 kts | 63° |
| 2026-05-07 19:59 | 50.34899 | 9.24544 | 16107 ft | 372 kts | 63° |
| 2026-05-07 20:00 | 50.36056 | 9.28187 | 16618 ft | 375 kts | 63° |
| 2026-05-07 20:00 | 50.37224 | 9.31856 | 17135 ft | 378 kts | 63° |
| 2026-05-07 20:00 | 50.38400 | 9.35565 | 17667 ft | 381 kts | 63° |
| 2026-05-07 20:00 | 50.39586 | 9.39305 | 18202 ft | 384 kts | 63° |
| 2026-05-07 20:01 | 50.40776 | 9.43067 | 18687 ft | 387 kts | 63° |
| 2026-05-07 20:01 | 50.41974 | 9.46857 | 19164 ft | 389 kts | 63° |
| 2026-05-07 20:01 | 50.43177 | 9.50674 | 19647 ft | 392 kts | 63° |
| 2026-05-07 20:01 | 50.44389 | 9.54526 | 20109 ft | 395 kts | 63° |
| 2026-05-07 20:02 | 50.45591 | 9.58346 | 20580 ft | 397 kts | 63° |
| 2026-05-07 20:02 | 50.46816 | 9.62253 | 21015 ft | 400 kts | 63° |
| 2026-05-07 20:02 | 50.48049 | 9.66183 | 21454 ft | 402 kts | 63° |
| 2026-05-07 20:02 | 50.49285 | 9.70133 | 21872 ft | 405 kts | 63° |
| 2026-05-07 20:03 | 50.50528 | 9.74118 | 22273 ft | 407 kts | 63° |
| 2026-05-07 20:03 | 50.51780 | 9.78118 | 22672 ft | 410 kts | 63° |
| 2026-05-07 20:03 | 50.53035 | 9.82145 | 23085 ft | 412 kts | 63° |
| 2026-05-07 20:03 | 50.54300 | 9.86202 | 23485 ft | 414 kts | 63° |
| 2026-05-07 20:04 | 50.55562 | 9.90293 | 23864 ft | 417 kts | 63° |
| 2026-05-07 20:04 | 50.56833 | 9.94402 | 24219 ft | 419 kts | 63° |
| 2026-05-07 20:04 | 50.58110 | 9.98536 | 24570 ft | 420 kts | 63° |
| 2026-05-07 20:04 | 50.59392 | 10.02679 | 24915 ft | 422 kts | 63° |
| 2026-05-07 20:05 | 50.60662 | 10.06795 | 25585 ft | 413 kts | 63° |
| 2026-05-07 20:05 | 50.61900 | 10.10828 | 26305 ft | 404 kts | 63° |
| 2026-05-07 20:05 | 50.63126 | 10.14818 | 26708 ft | 405 kts | 63° |
| 2026-05-07 20:05 | 50.64356 | 10.18820 | 27024 ft | 406 kts | 63° |
| 2026-05-07 20:06 | 50.65583 | 10.22831 | 27347 ft | 408 kts | 63° |
| 2026-05-07 20:06 | 50.66818 | 10.26865 | 27660 ft | 409 kts | 63° |
| 2026-05-07 20:06 | 50.68055 | 10.30922 | 27969 ft | 411 kts | 63° |
| 2026-05-07 20:06 | 50.69297 | 10.34987 | 28286 ft | 412 kts | 64° |
| 2026-05-07 20:07 | 50.70535 | 10.39069 | 28576 ft | 414 kts | 64° |
| 2026-05-07 20:07 | 50.71783 | 10.43175 | 28835 ft | 415 kts | 64° |
| 2026-05-07 20:07 | 50.73030 | 10.47290 | 29115 ft | 417 kts | 64° |
| 2026-05-07 20:07 | 50.74280 | 10.51421 | 29430 ft | 417 kts | 64° |
| 2026-05-07 20:08 | 50.75528 | 10.55548 | 29802 ft | 416 kts | 64° |
| 2026-05-07 20:08 | 50.76771 | 10.59672 | 30161 ft | 415 kts | 64° |
| 2026-05-07 20:08 | 50.78010 | 10.63784 | 30449 ft | 415 kts | 64° |
| 2026-05-07 20:08 | 50.79249 | 10.67904 | 30708 ft | 415 kts | 64° |
| 2026-05-07 20:09 | 50.80478 | 10.72031 | 30932 ft | 413 kts | 63° |
| 2026-05-07 20:09 | 50.81809 | 10.76002 | 31016 ft | 409 kts | 61° |
| 2026-05-07 20:10 | 50.85861 | 10.88036 | 31109 ft | 413 kts | 61° |
| 2026-05-07 20:10 | 50.88566 | 10.96062 | 31100 ft | 413 kts | 61° |
| 2026-05-07 20:11 | 50.91249 | 11.04053 | 31113 ft | 413 kts | 61° |
| 2026-05-07 20:11 | 50.93973 | 11.12141 | 31103 ft | 413 kts | 60° |
| 2026-05-07 20:12 | 50.96745 | 11.20057 | 31105 ft | 413 kts | 60° |
| 2026-05-07 20:12 | 50.99631 | 11.27959 | 30800 ft | 415 kts | 55° |
| 2026-05-07 20:12 | 51.01470 | 11.31396 | 30933 ft | 405 kts | 43° |
| 2026-05-07 20:13 | 51.03589 | 11.34386 | 30974 ft | 411 kts | 38° |
| 2026-05-07 20:13 | 51.08130 | 11.39966 | 30994 ft | 410 kts | 36° |
| 2026-05-07 20:14 | 51.12696 | 11.45369 | 30990 ft | 409 kts | 35° |
| 2026-05-07 20:14 | 51.17049 | 11.51158 | 30988 ft | 408 kts | 40° |
| 2026-05-07 20:15 | 51.21268 | 11.57209 | 30990 ft | 408 kts | 40° |
| 2026-05-07 20:15 | 51.23335 | 11.60200 | 30695 ft | 397 kts | 40° |
| 2026-05-07 20:15 | 51.25372 | 11.63146 | 30129 ft | 393 kts | 40° |
| 2026-05-07 20:15 | 51.27388 | 11.66059 | 29478 ft | 391 kts | 40° |
| 2026-05-07 20:16 | 51.29462 | 11.69062 | 28891 ft | 414 kts | 40° |
| 2026-05-07 20:16 | 51.31605 | 11.72174 | 28314 ft | 413 kts | 41° |
| 2026-05-07 20:16 | 51.33713 | 11.75236 | 27720 ft | 405 kts | 40° |
| 2026-05-07 20:16 | 51.35779 | 11.78241 | 27129 ft | 398 kts | 40° |
| 2026-05-07 20:17 | 51.37809 | 11.81193 | 26551 ft | 391 kts | 41° |
| 2026-05-07 20:17 | 51.39810 | 11.84111 | 25984 ft | 388 kts | 41° |
| 2026-05-07 20:17 | 51.41807 | 11.87023 | 25434 ft | 387 kts | 41° |
| 2026-05-07 20:17 | 51.43781 | 11.89907 | 24900 ft | 385 kts | 41° |
| 2026-05-07 20:18 | 51.45719 | 11.92744 | 24380 ft | 383 kts | 41° |
| 2026-05-07 20:18 | 51.47687 | 11.95623 | 23853 ft | 381 kts | 41° |
| 2026-05-07 20:18 | 51.49609 | 11.98444 | 23288 ft | 378 kts | 41° |
| 2026-05-07 20:18 | 51.51540 | 12.01276 | 22683 ft | 374 kts | 41° |
| 2026-05-07 20:19 | 51.53444 | 12.04077 | 22090 ft | 370 kts | 41° |
| 2026-05-07 20:19 | 51.55339 | 12.06864 | 21504 ft | 367 kts | 41° |
| 2026-05-07 20:19 | 51.57212 | 12.09623 | 20936 ft | 364 kts | 41° |
| 2026-05-07 20:19 | 51.59059 | 12.12349 | 20667 ft | 358 kts | 41° |
| 2026-05-07 20:20 | 51.60874 | 12.15028 | 20431 ft | 358 kts | 41° |
| 2026-05-07 20:20 | 51.62694 | 12.17723 | 20188 ft | 354 kts | 41° |
| 2026-05-07 20:20 | 51.64500 | 12.20390 | 19955 ft | 352 kts | 41° |
| 2026-05-07 20:20 | 51.66304 | 12.23061 | 19701 ft | 351 kts | 41° |
| 2026-05-07 20:21 | 51.68097 | 12.25723 | 19459 ft | 350 kts | 41° |
| 2026-05-07 20:21 | 51.69883 | 12.28374 | 19212 ft | 348 kts | 41° |
| 2026-05-07 20:21 | 51.71596 | 12.30925 | 18940 ft | 337 kts | 41° |
| 2026-05-07 20:21 | 51.73309 | 12.33471 | 18443 ft | 333 kts | 41° |
| 2026-05-07 20:22 | 51.75004 | 12.35997 | 17899 ft | 329 kts | 42° |
| 2026-05-07 20:22 | 51.76585 | 12.38353 | 17386 ft | 326 kts | 42° |
| 2026-05-07 20:22 | 51.78226 | 12.40806 | 16857 ft | 322 kts | 42° |
| 2026-05-07 20:22 | 51.79848 | 12.43229 | 16346 ft | 319 kts | 42° |
| 2026-05-07 20:23 | 51.81473 | 12.45660 | 16031 ft | 310 kts | 42° |
| 2026-05-07 20:23 | 51.83025 | 12.47984 | 15556 ft | 307 kts | 42° |
| 2026-05-07 20:23 | 51.84587 | 12.50324 | 15079 ft | 305 kts | 43° |
| 2026-05-07 20:23 | 51.86134 | 12.52646 | 14608 ft | 303 kts | 43° |
| 2026-05-07 20:24 | 51.87626 | 12.54884 | 14139 ft | 302 kts | 43° |
| 2026-05-07 20:24 | 51.89158 | 12.57190 | 13652 ft | 299 kts | 43° |
| 2026-05-07 20:24 | 51.90675 | 12.59473 | 13168 ft | 297 kts | 43° |
| 2026-05-07 20:24 | 51.92182 | 12.61744 | 12689 ft | 295 kts | 43° |
| 2026-05-07 20:25 | 51.93669 | 12.63985 | 12224 ft | 292 kts | 43° |
| 2026-05-07 20:25 | 51.95150 | 12.66219 | 11770 ft | 290 kts | 43° |
| 2026-05-07 20:25 | 51.96622 | 12.68444 | 11315 ft | 288 kts | 43° |
| 2026-05-07 20:25 | 51.98082 | 12.70651 | 10877 ft | 286 kts | 43° |
| 2026-05-07 20:26 | 51.99530 | 12.72843 | 10466 ft | 284 kts | 44° |
| 2026-05-07 20:26 | 52.00931 | 12.74963 | 10355 ft | 267 kts | 44° |
| 2026-05-07 20:26 | 52.01819 | 12.76309 | 10220 ft | 258 kts | 44° |
| 2026-05-07 20:26 | 52.03094 | 12.78244 | 9953 ft | 245 kts | 44° |
| 2026-05-07 20:27 | 52.04315 | 12.80098 | 9624 ft | 235 kts | 44° |
| 2026-05-07 20:27 | 52.05491 | 12.81885 | 9299 ft | 227 kts | 44° |
| 2026-05-07 20:27 | 52.06630 | 12.83616 | 8928 ft | 222 kts | 44° |
| 2026-05-07 20:27 | 52.07757 | 12.85342 | 8450 ft | 223 kts | 43° |
| 2026-05-07 20:28 | 52.08885 | 12.87044 | 8055 ft | 219 kts | 44° |
| 2026-05-07 20:28 | 52.09991 | 12.88726 | 7602 ft | 217 kts | 44° |
| 2026-05-07 20:28 | 52.11090 | 12.90395 | 7163 ft | 215 kts | 44° |
| 2026-05-07 20:28 | 52.12179 | 12.92041 | 6727 ft | 212 kts | 44° |
| 2026-05-07 20:29 | 52.13261 | 12.93672 | 6427 ft | 211 kts | 44° |
| 2026-05-07 20:29 | 52.14338 | 12.95291 | 6152 ft | 210 kts | 44° |
| 2026-05-07 20:29 | 52.15407 | 12.96903 | 5888 ft | 209 kts | 44° |
| 2026-05-07 20:29 | 52.16471 | 12.98511 | 5625 ft | 208 kts | 44° |
| 2026-05-07 20:30 | 52.17532 | 13.00113 | 5367 ft | 207 kts | 44° |
| 2026-05-07 20:30 | 52.18584 | 13.01713 | 5108 ft | 207 kts | 44° |
| 2026-05-07 20:30 | 52.19629 | 13.03315 | 4850 ft | 206 kts | 44° |
| 2026-05-07 20:30 | 52.20666 | 13.04911 | 4597 ft | 205 kts | 44° |
| 2026-05-07 20:31 | 52.21697 | 13.06503 | 4343 ft | 204 kts | 44° |
| 2026-05-07 20:31 | 52.22728 | 13.08085 | 4091 ft | 203 kts | 44° |
| 2026-05-07 20:31 | 52.23750 | 13.09665 | 3846 ft | 202 kts | 44° |
| 2026-05-07 20:31 | 52.24767 | 13.11241 | 3600 ft | 201 kts | 44° |
| 2026-05-07 20:32 | 52.25782 | 13.12803 | 3368 ft | 200 kts | 44° |
| 2026-05-07 20:32 | 52.26698 | 13.14492 | 3146 ft | 201 kts | 60° |
| 2026-05-07 20:32 | 52.27290 | 13.16678 | 3096 ft | 209 kts | 70° |
| 2026-05-07 20:32 | 52.27811 | 13.18826 | 3048 ft | 197 kts | 67° |
| 2026-05-07 20:33 | 52.28320 | 13.20798 | 3045 ft | 179 kts | 68° |
| 2026-05-07 20:33 | 52.28746 | 13.22606 | 3009 ft | 163 kts | 69° |
| 2026-05-07 20:33 | 52.29141 | 13.24250 | 2960 ft | 147 kts | 68° |
| 2026-05-07 20:33 | 52.29525 | 13.25839 | 2782 ft | 162 kts | 69° |
| 2026-05-07 20:34 | 52.29942 | 13.27583 | 2588 ft | 166 kts | 69° |
| 2026-05-07 20:34 | 52.30364 | 13.29345 | 2410 ft | 167 kts | 68° |
| 2026-05-07 20:34 | 52.30787 | 13.31104 | 2215 ft | 166 kts | 68° |
| 2026-05-07 20:34 | 52.31207 | 13.32862 | 2018 ft | 166 kts | 68° |
| 2026-05-07 20:35 | 52.31626 | 13.34617 | 1807 ft | 165 kts | 68° |
| 2026-05-07 20:35 | 52.32027 | 13.36295 | 1610 ft | 153 kts | 68° |
| 2026-05-07 20:35 | 52.32413 | 13.37868 | 1397 ft | 144 kts | 68° |
| 2026-05-07 20:35 | 52.32769 | 13.39361 | 1167 ft | 139 kts | 69° |
| 2026-05-07 20:36 | 52.33114 | 13.40820 | 956 ft | 138 kts | 67° |
| 2026-05-07 20:36 | 52.33458 | 13.42292 | 792 ft | 140 kts | 68° |
| 2026-05-07 20:36 | 52.33810 | 13.43759 | 635 ft | 142 kts | 68° |
| 2026-05-07 20:36 | 52.34167 | 13.45240 | 411 ft | 138 kts | 68° |
| 2026-05-07 20:37 | 52.34510 | 13.46704 | 221 ft | 136 kts | 68° |
| 2026-05-07 20:37 | 52.34840 | 13.48106 | 155 ft | 121 kts | 68° |
| 2026-05-07 20:37 | 52.35119 | 13.49261 | 153 ft | 99 kts | 68° |
| 2026-05-07 20:37 | 52.35340 | 13.50197 | 153 ft | 68 kts | 69° |
| 2026-05-07 20:38 | 52.35485 | 13.50564 | 153 ft | 24 kts | 42° |
| 2026-05-07 20:38 | 52.35602 | 13.50718 | 153 ft | 19 kts | 38° |
| 2026-05-07 20:38 | 52.35669 | 13.50806 | 153 ft | 0 kts | 39° |
| 2026-05-07 20:39 | 52.35695 | 13.50832 | 153 ft | 9 kts | 25° |
| 2026-05-07 20:39 | 52.35770 | 13.50827 | 153 ft | 13 kts | 341° |
| 2026-05-07 20:39 | 52.35867 | 13.50766 | 153 ft | 17 kts | 339° |
| 2026-05-07 20:39 | 52.35974 | 13.50698 | 153 ft | 17 kts | 339° |
| 2026-05-07 20:40 | 52.36085 | 13.50628 | 153 ft | 18 kts | 339° |
| 2026-05-07 20:40 | 52.36202 | 13.50554 | 153 ft | 18 kts | 339° |
| 2026-05-07 20:40 | 52.36311 | 13.50485 | 153 ft | 16 kts | 338° |
| 2026-05-07 20:40 | 52.36386 | 13.50447 | 153 ft | 6 kts | 13° |
| 2026-05-07 20:41 | 52.36414 | 13.50501 | 153 ft | 7 kts | 61° |
| 2026-05-07 20:41 | 52.36430 | 13.50562 | 153 ft | 2 kts | 69° |